LFPO/ORY METAR and TAF weather

Enter ICAO airport designator
Station Type Date Time Source
LFPO METAR 2023/02/01 13:00 UTC NOAA

LFPO 011300Z 28014KT 9999 BKN030 BKN043 10/02 Q1028 NOSIG


Station Type Date Time Source
LFPO Decoded METAR 2023/02/01 13:00 UTC NOAA

Paris-Orly, France (LFPO) 48-44N 002-24E 96M
Feb 01, 2023 - 08:00 AM EST / 2023.02.01 1300 UTC
Wind: from the W (280 degrees) at 16 MPH (14 KT):0
Visibility: greater than 7 mile(s):0
Sky conditions: mostly cloudy
Temperature: 50 F (10 C)
Dew Point: 35 F (2 C)
Relative Humidity: 57%
Pressure (altimeter): 30.36 in. Hg (1028 hPa)
ob: LFPO 011300Z 28014KT 9999 BKN030 BKN043 10/02 Q1028 NOSIG
cycle: 13

Station Type Date Time Source
LFPO TAF 2023/02/01 12:51 UTC NOAA

TAF LFPO 011100Z 0112/0218 26010KT 9999 BKN030 PROB30
TEMPO 0112/0115 27015G25KT

Example: see airport list